Terminal Aerodrome Forecast
Issued by NWS

Home | Current Version | Previous Version | Text Only | Print | Product List | Glossary Off
Versions: 1 2 3 4 5 6 7 8 9 10 11 12 13 14 15 16 17 18 19 20 21 22 23 24 25 26 27 28 29 30 31 32 33 34

000
FTUS43 KLOT 151128
TAFMDW
TAF
KMDW 151128Z 1512/1612 18012KT P6SM -SHRA OVC020
     FM151400 20010KT 3SM -RA BR OVC008
     FM151900 25012G18KT P6SM SCT008 BKN015
     FM152100 28016G24KT P6SM SCT020
     FM160000 29014G22KT P6SM BKN025
     FM160800 31008KT P6SM BKN020=

USA.gov is the U.S. government's official web portal to all federal, state and local government web resources and services.